sensor_id;sensor_type;location;lat;lon;timestamp;P1;durP1;ratioP1;P2;durP2;ratioP2
37641;SDS011;23486;51.956;5.888;2023-03-01T00:01:07;6.97;;;2.67;;
37641;SDS011;23486;51.956;5.888;2023-03-01T00:03:35;4.85;;;2.38;;
37641;SDS011;23486;51.956;5.888;2023-03-01T00:06:01;7.57;;;2.42;;
37641;SDS011;23486;51.956;5.888;2023-03-01T00:08:28;7.03;;;1.73;;
37641;SDS011;23486;51.956;5.888;2023-03-01T00:11:08;5.93;;;2.08;;
37641;SDS011;23486;51.956;5.888;2023-03-01T00:13:38;4.97;;;2.17;;
37641;SDS011;23486;51.956;5.888;2023-03-01T00:16:04;5.38;;;1.83;;
37641;SDS011;23486;51.956;5.888;2023-03-01T00:18:31;4.28;;;1.63;;
37641;SDS011;23486;51.956;5.888;2023-03-01T00:20:57;5.82;;;2.15;;
37641;SDS011;23486;51.956;5.888;2023-03-01T00:23:27;3.17;;;1.00;;
37641;SDS011;23486;51.956;5.888;2023-03-01T00:25:53;3.83;;;1.50;;
37641;SDS011;23486;51.956;5.888;2023-03-01T00:28:19;4.43;;;2.15;;
37641;SDS011;23486;51.956;5.888;2023-03-01T00:30:45;5.80;;;2.05;;
37641;SDS011;23486;51.956;5.888;2023-03-01T00:33:11;7.28;;;1.65;;
37641;SDS011;23486;51.956;5.888;2023-03-01T00:35:39;5.03;;;2.10;;
37641;SDS011;23486;51.956;5.888;2023-03-01T00:38:05;7.63;;;2.15;;
37641;SDS011;23486;51.956;5.888;2023-03-01T00:40:32;3.47;;;1.65;;
37641;SDS011;23486;51.956;5.888;2023-03-01T00:43:01;5.72;;;1.88;;
37641;SDS011;23486;51.956;5.888;2023-03-01T00:45:28;4.55;;;1.83;;
37641;SDS011;23486;51.956;5.888;2023-03-01T00:47:55;4.13;;;1.25;;
37641;SDS011;23486;51.956;5.888;2023-03-01T00:50:21;4.32;;;2.03;;
37641;SDS011;23486;51.956;5.888;2023-03-01T00:52:51;3.95;;;1.73;;
37641;SDS011;23486;51.956;5.888;2023-03-01T00:55:18;8.95;;;2.17;;
37641;SDS011;23486;51.956;5.888;2023-03-01T00:57:43;4.45;;;1.80;;
37641;SDS011;23486;51.956;5.888;2023-03-01T01:00:09;6.40;;;2.13;;
37641;SDS011;23486;51.956;5.888;2023-03-01T01:02:36;6.43;;;1.73;;
37641;SDS011;23486;51.956;5.888;2023-03-01T01:05:02;5.47;;;2.15;;
37641;SDS011;23486;51.956;5.888;2023-03-01T01:07:29;5.13;;;1.88;;
37641;SDS011;23486;51.956;5.888;2023-03-01T01:09:54;5.45;;;2.53;;
37641;SDS011;23486;51.956;5.888;2023-03-01T01:12:20;5.68;;;2.40;;
37641;SDS011;23486;51.956;5.888;2023-03-01T01:14:45;5.30;;;2.05;;
37641;SDS011;23486;51.956;5.888;2023-03-01T01:17:11;4.40;;;1.50;;
37641;SDS011;23486;51.956;5.888;2023-03-01T01:19:36;6.53;;;3.10;;
37641;SDS011;23486;51.956;5.888;2023-03-01T01:22:02;5.10;;;2.05;;
37641;SDS011;23486;51.956;5.888;2023-03-01T01:24:28;4.57;;;1.80;;
37641;SDS011;23486;51.956;5.888;2023-03-01T01:26:53;5.65;;;1.38;;
37641;SDS011;23486;51.956;5.888;2023-03-01T01:29:22;5.97;;;1.80;;
37641;SDS011;23486;51.956;5.888;2023-03-01T01:31:48;4.88;;;1.65;;
37641;SDS011;23486;51.956;5.888;2023-03-01T01:34:15;8.38;;;2.35;;
37641;SDS011;23486;51.956;5.888;2023-03-01T01:36:42;5.15;;;2.13;;
37641;SDS011;23486;51.956;5.888;2023-03-01T01:39:08;6.45;;;2.60;;
37641;SDS011;23486;51.956;5.888;2023-03-01T01:41:38;4.97;;;2.60;;
37641;SDS011;23486;51.956;5.888;2023-03-01T01:46:48;6.15;;;3.55;;
37641;SDS011;23486;51.956;5.888;2023-03-01T01:52:34;7.18;;;3.83;;
37641;SDS011;23486;51.956;5.888;2023-03-01T01:55:06;8.30;;;4.20;;
37641;SDS011;23486;51.956;5.888;2023-03-01T01:57:37;9.43;;;4.20;;
37641;SDS011;23486;51.956;5.888;2023-03-01T02:00:07;9.52;;;4.82;;
37641;SDS011;23486;51.956;5.888;2023-03-01T02:02:36;8.48;;;3.65;;
37641;SDS011;23486;51.956;5.888;2023-03-01T02:05:05;7.32;;;4.07;;
37641;SDS011;23486;51.956;5.888;2023-03-01T02:07:39;7.35;;;3.53;;
37641;SDS011;23486;51.956;5.888;2023-03-01T02:10:06;7.05;;;3.25;;
37641;SDS011;23486;51.956;5.888;2023-03-01T02:12:32;6.88;;;3.10;;
37641;SDS011;23486;51.956;5.888;2023-03-01T02:14:59;7.78;;;3.67;;
37641;SDS011;23486;51.956;5.888;2023-03-01T02:17:24;5.78;;;3.13;;
37641;SDS011;23486;51.956;5.888;2023-03-01T02:19:57;8.50;;;3.67;;
37641;SDS011;23486;51.956;5.888;2023-03-01T02:22:48;6.35;;;3.10;;
37641;SDS011;23486;51.956;5.888;2023-03-01T02:25:26;5.80;;;2.65;;
37641;SDS011;23486;51.956;5.888;2023-03-01T02:30:41;6.35;;;3.08;;
37641;SDS011;23486;51.956;5.888;2023-03-01T02:33:28;9.52;;;4.63;;
37641;SDS011;23486;51.956;5.888;2023-03-01T02:35:57;8.15;;;4.13;;
37641;SDS011;23486;51.956;5.888;2023-03-01T02:38:28;7.90;;;3.80;;
37641;SDS011;23486;51.956;5.888;2023-03-01T02:40:55;6.35;;;2.70;;
37641;SDS011;23486;51.956;5.888;2023-03-01T02:43:22;8.35;;;3.30;;
37641;SDS011;23486;51.956;5.888;2023-03-01T02:46:03;7.45;;;3.58;;
37641;SDS011;23486;51.956;5.888;2023-03-01T02:48:44;5.70;;;2.90;;
37641;SDS011;23486;51.956;5.888;2023-03-01T02:51:21;7.50;;;3.55;;
37641;SDS011;23486;51.956;5.888;2023-03-01T02:54:10;8.50;;;3.85;;
37641;SDS011;23486;51.956;5.888;2023-03-01T02:56:40;7.35;;;3.03;;
37641;SDS011;23486;51.956;5.888;2023-03-01T02:59:07;8.40;;;4.05;;
37641;SDS011;23486;51.956;5.888;2023-03-01T03:01:34;9.38;;;4.85;;
37641;SDS011;23486;51.956;5.888;2023-03-01T03:04:06;6.65;;;3.50;;
37641;SDS011;23486;51.956;5.888;2023-03-01T03:06:34;6.65;;;3.13;;
37641;SDS011;23486;51.956;5.888;2023-03-01T03:09:01;7.50;;;3.92;;
37641;SDS011;23486;51.956;5.888;2023-03-01T03:11:27;6.65;;;3.42;;
37641;SDS011;23486;51.956;5.888;2023-03-01T03:13:53;5.53;;;3.05;;
37641;SDS011;23486;51.956;5.888;2023-03-01T03:16:22;6.40;;;3.22;;
37641;SDS011;23486;51.956;5.888;2023-03-01T03:18:49;7.65;;;3.88;;
37641;SDS011;23486;51.956;5.888;2023-03-01T03:21:15;6.00;;;3.47;;
37641;SDS011;23486;51.956;5.888;2023-03-01T03:23:42;7.32;;;4.13;;
37641;SDS011;23486;51.956;5.888;2023-03-01T03:26:08;5.43;;;2.90;;
37641;SDS011;23486;51.956;5.888;2023-03-01T03:28:34;8.98;;;2.60;;
37641;SDS011;23486;51.956;5.888;2023-03-01T03:31:00;7.85;;;3.50;;
37641;SDS011;23486;51.956;5.888;2023-03-01T03:33:29;7.07;;;4.18;;
37641;SDS011;23486;51.956;5.888;2023-03-01T03:35:55;8.02;;;3.78;;
37641;SDS011;23486;51.956;5.888;2023-03-01T03:38:21;6.97;;;3.75;;
37641;SDS011;23486;51.956;5.888;2023-03-01T03:41:03;7.38;;;3.78;;
37641;SDS011;23486;51.956;5.888;2023-03-01T03:43:36;7.75;;;4.18;;
37641;SDS011;23486;51.956;5.888;2023-03-01T03:46:04;6.95;;;3.75;;
37641;SDS011;23486;51.956;5.888;2023-03-01T03:48:42;6.47;;;3.45;;
37641;SDS011;23486;51.956;5.888;2023-03-01T03:51:15;8.27;;;3.47;;
37641;SDS011;23486;51.956;5.888;2023-03-01T03:53:43;5.78;;;2.92;;
37641;SDS011;23486;51.956;5.888;2023-03-01T03:56:12;6.25;;;2.65;;
37641;SDS011;23486;51.956;5.888;2023-03-01T03:58:38;7.07;;;3.53;;
37641;SDS011;23486;51.956;5.888;2023-03-01T04:01:04;8.30;;;3.38;;
37641;SDS011;23486;51.956;5.888;2023-03-01T04:03:31;9.63;;;4.32;;
37641;SDS011;23486;51.956;5.888;2023-03-01T04:05:58;7.22;;;3.85;;
37641;SDS011;23486;51.956;5.888;2023-03-01T04:08:28;11.32;;;5.07;;
37641;SDS011;23486;51.956;5.888;2023-03-01T04:10:57;11.20;;;5.15;;
37641;SDS011;23486;51.956;5.888;2023-03-01T04:13:25;8.75;;;4.50;;
37641;SDS011;23486;51.956;5.888;2023-03-01T04:15:52;6.75;;;3.40;;
37641;SDS011;23486;51.956;5.888;2023-03-01T04:18:19;8.95;;;4.78;;
37641;SDS011;23486;51.956;5.888;2023-03-01T04:20:46;7.88;;;4.10;;
37641;SDS011;23486;51.956;5.888;2023-03-01T04:23:13;7.40;;;4.60;;
37641;SDS011;23486;51.956;5.888;2023-03-01T04:25:57;8.30;;;3.88;;
37641;SDS011;23486;51.956;5.888;2023-03-01T04:28:24;10.55;;;4.38;;
37641;SDS011;23486;51.956;5.888;2023-03-01T04:30:51;9.35;;;5.03;;
37641;SDS011;23486;51.956;5.888;2023-03-01T04:33:21;7.47;;;3.97;;
37641;SDS011;23486;51.956;5.888;2023-03-01T04:35:47;8.93;;;3.92;;
37641;SDS011;23486;51.956;5.888;2023-03-01T04:38:16;9.55;;;3.97;;
37641;SDS011;23486;51.956;5.888;2023-03-01T04:40:43;8.88;;;3.78;;
37641;SDS011;23486;51.956;5.888;2023-03-01T04:43:09;9.13;;;3.20;;
37641;SDS011;23486;51.956;5.888;2023-03-01T04:45:35;7.85;;;3.08;;
37641;SDS011;23486;51.956;5.888;2023-03-01T04:48:01;5.30;;;2.83;;
37641;SDS011;23486;51.956;5.888;2023-03-01T04:50:28;6.88;;;3.10;;
37641;SDS011;23486;51.956;5.888;2023-03-01T04:52:57;4.57;;;2.45;;
37641;SDS011;23486;51.956;5.888;2023-03-01T04:55:24;6.97;;;3.15;;
37641;SDS011;23486;51.956;5.888;2023-03-01T04:57:53;5.97;;;2.67;;
37641;SDS011;23486;51.956;5.888;2023-03-01T05:00:19;5.28;;;2.30;;
37641;SDS011;23486;51.956;5.888;2023-03-01T05:02:47;6.93;;;3.58;;
37641;SDS011;23486;51.956;5.888;2023-03-01T05:05:14;6.38;;;3.05;;
37641;SDS011;23486;51.956;5.888;2023-03-01T05:07:43;6.65;;;2.83;;
37641;SDS011;23486;51.956;5.888;2023-03-01T05:10:09;5.22;;;2.47;;
37641;SDS011;23486;51.956;5.888;2023-03-01T05:12:34;5.50;;;2.53;;
37641;SDS011;23486;51.956;5.888;2023-03-01T05:15:05;6.75;;;2.15;;
37641;SDS011;23486;51.956;5.888;2023-03-01T05:17:33;7.95;;;3.25;;
37641;SDS011;23486;51.956;5.888;2023-03-01T05:19:59;7.50;;;3.20;;
37641;SDS011;23486;51.956;5.888;2023-03-01T05:22:26;6.63;;;3.47;;
37641;SDS011;23486;51.956;5.888;2023-03-01T05:24:52;6.32;;;2.80;;
37641;SDS011;23486;51.956;5.888;2023-03-01T05:27:18;5.68;;;2.70;;
37641;SDS011;23486;51.956;5.888;2023-03-01T05:29:47;7.80;;;3.03;;
37641;SDS011;23486;51.956;5.888;2023-03-01T05:32:12;7.10;;;2.63;;
37641;SDS011;23486;51.956;5.888;2023-03-01T05:34:40;7.82;;;3.00;;
37641;SDS011;23486;51.956;5.888;2023-03-01T05:37:06;6.78;;;2.90;;
37641;SDS011;23486;51.956;5.888;2023-03-01T05:39:33;6.85;;;2.58;;
37641;SDS011;23486;51.956;5.888;2023-03-01T05:42:00;5.80;;;2.40;;
37641;SDS011;23486;51.956;5.888;2023-03-01T05:44:26;7.50;;;3.08;;
37641;SDS011;23486;51.956;5.888;2023-03-01T05:46:56;7.28;;;3.20;;
37641;SDS011;23486;51.956;5.888;2023-03-01T05:49:22;8.10;;;3.08;;
37641;SDS011;23486;51.956;5.888;2023-03-01T05:51:51;8.23;;;3.65;;
37641;SDS011;23486;51.956;5.888;2023-03-01T05:54:18;10.85;;;3.30;;
37641;SDS011;23486;51.956;5.888;2023-03-01T05:56:45;8.55;;;3.38;;
37641;SDS011;23486;51.956;5.888;2023-03-01T05:59:14;7.53;;;3.50;;
37641;SDS011;23486;51.956;5.888;2023-03-01T06:01:41;7.57;;;3.53;;
37641;SDS011;23486;51.956;5.888;2023-03-01T06:04:06;6.55;;;3.20;;
37641;SDS011;23486;51.956;5.888;2023-03-01T06:06:35;6.90;;;2.97;;
37641;SDS011;23486;51.956;5.888;2023-03-01T06:09:02;6.63;;;2.42;;
37641;SDS011;23486;51.956;5.888;2023-03-01T06:11:29;6.13;;;3.05;;
37641;SDS011;23486;51.956;5.888;2023-03-01T06:13:54;6.35;;;2.97;;
37641;SDS011;23486;51.956;5.888;2023-03-01T06:16:20;7.32;;;2.95;;
37641;SDS011;23486;51.956;5.888;2023-03-01T06:18:45;8.23;;;3.10;;
37641;SDS011;23486;51.956;5.888;2023-03-01T06:21:11;7.45;;;2.97;;
37641;SDS011;23486;51.956;5.888;2023-03-01T06:23:36;8.40;;;2.78;;
37641;SDS011;23486;51.956;5.888;2023-03-01T06:26:08;7.55;;;2.72;;
37641;SDS011;23486;51.956;5.888;2023-03-01T06:28:34;6.63;;;2.42;;
37641;SDS011;23486;51.956;5.888;2023-03-01T06:31:00;5.45;;;2.53;;
37641;SDS011;23486;51.956;5.888;2023-03-01T06:33:26;6.22;;;2.67;;
37641;SDS011;23486;51.956;5.888;2023-03-01T06:35:54;5.50;;;2.70;;
37641;SDS011;23486;51.956;5.888;2023-03-01T06:38:21;6.93;;;2.25;;
37641;SDS011;23486;51.956;5.888;2023-03-01T06:40:54;5.03;;;2.72;;
37641;SDS011;23486;51.956;5.888;2023-03-01T06:45:48;6.13;;;2.35;;
37641;SDS011;23486;51.956;5.888;2023-03-01T06:48:13;6.47;;;2.53;;
37641;SDS011;23486;51.956;5.888;2023-03-01T06:50:39;5.05;;;2.05;;
37641;SDS011;23486;51.956;5.888;2023-03-01T06:53:05;7.95;;;2.33;;
37641;SDS011;23486;51.956;5.888;2023-03-01T06:55:31;5.03;;;2.38;;
37641;SDS011;23486;51.956;5.888;2023-03-01T06:57:57;8.00;;;3.08;;
37641;SDS011;23486;51.956;5.888;2023-03-01T07:00:24;8.00;;;3.40;;
37641;SDS011;23486;51.956;5.888;2023-03-01T07:02:50;4.95;;;3.08;;
37641;SDS011;23486;51.956;5.888;2023-03-01T07:05:16;9.05;;;3.78;;
37641;SDS011;23486;51.956;5.888;2023-03-01T07:07:41;8.75;;;4.55;;
37641;SDS011;23486;51.956;5.888;2023-03-01T07:10:07;8.43;;;4.28;;
37641;SDS011;23486;51.956;5.888;2023-03-01T07:12:33;7.85;;;4.03;;
37641;SDS011;23486;51.956;5.888;2023-03-01T07:14:59;9.32;;;4.65;;
37641;SDS011;23486;51.956;5.888;2023-03-01T07:17:24;8.55;;;4.63;;
37641;SDS011;23486;51.956;5.888;2023-03-01T07:19:50;9.07;;;4.32;;
37641;SDS011;23486;51.956;5.888;2023-03-01T07:22:16;8.93;;;4.97;;
37641;SDS011;23486;51.956;5.888;2023-03-01T07:24:42;9.77;;;4.30;;
37641;SDS011;23486;51.956;5.888;2023-03-01T07:27:08;7.57;;;4.40;;
37641;SDS011;23486;51.956;5.888;2023-03-01T07:29:34;13.50;;;5.93;;
37641;SDS011;23486;51.956;5.888;2023-03-01T07:32:01;6.97;;;3.95;;
37641;SDS011;23486;51.956;5.888;2023-03-01T07:34:27;7.35;;;3.45;;
37641;SDS011;23486;51.956;5.888;2023-03-01T07:36:53;7.53;;;3.42;;
37641;SDS011;23486;51.956;5.888;2023-03-01T07:39:19;7.18;;;3.95;;
37641;SDS011;23486;51.956;5.888;2023-03-01T07:41:44;10.20;;;4.25;;
37641;SDS011;23486;51.956;5.888;2023-03-01T07:44:10;7.70;;;3.40;;
37641;SDS011;23486;51.956;5.888;2023-03-01T07:46:36;8.00;;;3.50;;
37641;SDS011;23486;51.956;5.888;2023-03-01T07:49:04;9.05;;;4.43;;
37641;SDS011;23486;51.956;5.888;2023-03-01T07:51:30;9.63;;;5.15;;
37641;SDS011;23486;51.956;5.888;2023-03-01T07:54:02;10.23;;;5.55;;
37641;SDS011;23486;51.956;5.888;2023-03-01T07:56:33;9.75;;;4.43;;
37641;SDS011;23486;51.956;5.888;2023-03-01T07:58:59;10.10;;;4.68;;
37641;SDS011;23486;51.956;5.888;2023-03-01T08:01:25;7.43;;;3.83;;
37641;SDS011;23486;51.956;5.888;2023-03-01T08:03:50;9.32;;;4.93;;
37641;SDS011;23486;51.956;5.888;2023-03-01T08:06:19;9.93;;;4.70;;
37641;SDS011;23486;51.956;5.888;2023-03-01T08:08:48;7.80;;;3.70;;
37641;SDS011;23486;51.956;5.888;2023-03-01T08:11:14;6.50;;;3.42;;
37641;SDS011;23486;51.956;5.888;2023-03-01T08:13:41;10.02;;;4.45;;
37641;SDS011;23486;51.956;5.888;2023-03-01T08:16:10;6.35;;;3.30;;
37641;SDS011;23486;51.956;5.888;2023-03-01T08:18:37;8.85;;;4.15;;
37641;SDS011;23486;51.956;5.888;2023-03-01T08:21:04;8.38;;;5.00;;
37641;SDS011;23486;51.956;5.888;2023-03-01T08:23:34;7.47;;;3.80;;
37641;SDS011;23486;51.956;5.888;2023-03-01T08:26:06;7.68;;;3.88;;
37641;SDS011;23486;51.956;5.888;2023-03-01T08:28:37;9.50;;;4.20;;
37641;SDS011;23486;51.956;5.888;2023-03-01T08:31:12;11.43;;;4.50;;
37641;SDS011;23486;51.956;5.888;2023-03-01T08:33:39;7.47;;;4.05;;
37641;SDS011;23486;51.956;5.888;2023-03-01T08:36:05;10.85;;;5.13;;
37641;SDS011;23486;51.956;5.888;2023-03-01T08:38:32;10.30;;;4.88;;
37641;SDS011;23486;51.956;5.888;2023-03-01T08:41:03;9.02;;;4.53;;
37641;SDS011;23486;51.956;5.888;2023-03-01T08:43:29;8.85;;;4.25;;
37641;SDS011;23486;51.956;5.888;2023-03-01T08:45:55;10.07;;;5.63;;
37641;SDS011;23486;51.956;5.888;2023-03-01T08:48:21;10.52;;;4.53;;
37641;SDS011;23486;51.956;5.888;2023-03-01T08:50:46;10.05;;;4.60;;
37641;SDS011;23486;51.956;5.888;2023-03-01T08:53:12;9.38;;;4.47;;
37641;SDS011;23486;51.956;5.888;2023-03-01T08:55:37;11.40;;;5.55;;
37641;SDS011;23486;51.956;5.888;2023-03-01T08:58:03;7.75;;;4.43;;
37641;SDS011;23486;51.956;5.888;2023-03-01T09:00:29;7.78;;;4.55;;
37641;SDS011;23486;51.956;5.888;2023-03-01T09:02:54;8.38;;;4.55;;
37641;SDS011;23486;51.956;5.888;2023-03-01T09:05:20;8.68;;;5.07;;
37641;SDS011;23486;51.956;5.888;2023-03-01T09:07:46;12.85;;;4.25;;
37641;SDS011;23486;51.956;5.888;2023-03-01T09:10:14;11.13;;;4.40;;
37641;SDS011;23486;51.956;5.888;2023-03-01T09:12:40;8.57;;;4.03;;
37641;SDS011;23486;51.956;5.888;2023-03-01T09:15:06;8.43;;;4.10;;
37641;SDS011;23486;51.956;5.888;2023-03-01T09:17:32;8.93;;;4.38;;
37641;SDS011;23486;51.956;5.888;2023-03-01T09:19:57;8.02;;;3.85;;
37641;SDS011;23486;51.956;5.888;2023-03-01T09:22:24;7.90;;;3.97;;
37641;SDS011;23486;51.956;5.888;2023-03-01T09:24:50;7.85;;;3.92;;
37641;SDS011;23486;51.956;5.888;2023-03-01T09:27:16;7.53;;;3.00;;
37641;SDS011;23486;51.956;5.888;2023-03-01T09:29:43;8.20;;;3.72;;
37641;SDS011;23486;51.956;5.888;2023-03-01T09:32:09;7.03;;;3.50;;
37641;SDS011;23486;51.956;5.888;2023-03-01T09:34:35;7.43;;;3.88;;
37641;SDS011;23486;51.956;5.888;2023-03-01T09:37:21;8.20;;;3.92;;
37641;SDS011;23486;51.956;5.888;2023-03-01T09:39:46;6.25;;;3.05;;
37641;SDS011;23486;51.956;5.888;2023-03-01T09:42:12;6.75;;;3.03;;
37641;SDS011;23486;51.956;5.888;2023-03-01T09:47:51;9.85;;;4.85;;
37641;SDS011;23486;51.956;5.888;2023-03-01T09:50:18;10.93;;;6.13;;
37641;SDS011;23486;51.956;5.888;2023-03-01T09:52:53;12.27;;;5.00;;
37641;SDS011;23486;51.956;5.888;2023-03-01T09:58:31;12.68;;;5.50;;
37641;SDS011;23486;51.956;5.888;2023-03-01T10:01:30;9.63;;;4.95;;
37641;SDS011;23486;51.956;5.888;2023-03-01T10:09:52;9.63;;;4.78;;
37641;SDS011;23486;51.956;5.888;2023-03-01T10:12:19;10.52;;;5.80;;
37641;SDS011;23486;51.956;5.888;2023-03-01T10:20:26;9.02;;;5.47;;
37641;SDS011;23486;51.956;5.888;2023-03-01T10:23:02;10.10;;;5.72;;
37641;SDS011;23486;51.956;5.888;2023-03-01T10:25:45;14.35;;;7.10;;
37641;SDS011;23486;51.956;5.888;2023-03-01T10:31:29;10.70;;;5.72;;
37641;SDS011;23486;51.956;5.888;2023-03-01T10:34:15;11.90;;;5.45;;
37641;SDS011;23486;51.956;5.888;2023-03-01T10:36:45;10.73;;;5.47;;
37641;SDS011;23486;51.956;5.888;2023-03-01T10:39:15;9.73;;;5.38;;
37641;SDS011;23486;51.956;5.888;2023-03-01T10:41:53;8.10;;;5.00;;
37641;SDS011;23486;51.956;5.888;2023-03-01T10:44:38;9.13;;;5.60;;
37641;SDS011;23486;51.956;5.888;2023-03-01T10:47:16;9.18;;;4.55;;
37641;SDS011;23486;51.956;5.888;2023-03-01T10:49:54;9.07;;;4.25;;
37641;SDS011;23486;51.956;5.888;2023-03-01T10:52:21;14.02;;;5.50;;
37641;SDS011;23486;51.956;5.888;2023-03-01T10:54:51;9.80;;;5.75;;
37641;SDS011;23486;51.956;5.888;2023-03-01T10:57:27;11.80;;;5.35;;
37641;SDS011;23486;51.956;5.888;2023-03-01T11:00:13;12.27;;;6.20;;
37641;SDS011;23486;51.956;5.888;2023-03-01T11:03:18;9.13;;;5.28;;
37641;SDS011;23486;51.956;5.888;2023-03-01T11:05:44;10.15;;;4.65;;
37641;SDS011;23486;51.956;5.888;2023-03-01T11:08:28;7.68;;;3.50;;
37641;SDS011;23486;51.956;5.888;2023-03-01T11:16:31;8.40;;;4.03;;
37641;SDS011;23486;51.956;5.888;2023-03-01T11:21:37;8.10;;;3.20;;
37641;SDS011;23486;51.956;5.888;2023-03-01T11:24:24;5.93;;;2.85;;
37641;SDS011;23486;51.956;5.888;2023-03-01T11:26:56;6.63;;;2.80;;
37641;SDS011;23486;51.956;5.888;2023-03-01T11:29:31;5.88;;;3.28;;
37641;SDS011;23486;51.956;5.888;2023-03-01T11:32:03;9.23;;;4.32;;
37641;SDS011;23486;51.956;5.888;2023-03-01T11:37:33;7.03;;;2.83;;
37641;SDS011;23486;51.956;5.888;2023-03-01T11:40:21;7.95;;;3.67;;
37641;SDS011;23486;51.956;5.888;2023-03-01T11:46:02;7.57;;;3.15;;
37641;SDS011;23486;51.956;5.888;2023-03-01T11:51:45;6.15;;;3.22;;
37641;SDS011;23486;51.956;5.888;2023-03-01T11:58:10;5.95;;;3.35;;
37641;SDS011;23486;51.956;5.888;2023-03-01T12:01:16;6.50;;;3.75;;
37641;SDS011;23486;51.956;5.888;2023-03-01T12:04:27;7.38;;;3.38;;
37641;SDS011;23486;51.956;5.888;2023-03-01T12:07:14;9.57;;;4.15;;
37641;SDS011;23486;51.956;5.888;2023-03-01T12:15:42;7.25;;;4.03;;
37641;SDS011;23486;51.956;5.888;2023-03-01T12:38:21;7.97;;;4.13;;
37641;SDS011;23486;51.956;5.888;2023-03-01T12:41:41;9.05;;;3.38;;
37641;SDS011;23486;51.956;5.888;2023-03-01T12:49:13;5.93;;;2.92;;
37641;SDS011;23486;51.956;5.888;2023-03-01T12:51:49;8.13;;;3.20;;
37641;SDS011;23486;51.956;5.888;2023-03-01T12:54:31;7.63;;;2.75;;
37641;SDS011;23486;51.956;5.888;2023-03-01T12:57:02;4.68;;;2.47;;
37641;SDS011;23486;51.956;5.888;2023-03-01T12:59:44;6.05;;;2.92;;
37641;SDS011;23486;51.956;5.888;2023-03-01T13:07:59;6.40;;;2.45;;
37641;SDS011;23486;51.956;5.888;2023-03-01T13:13:02;5.25;;;2.75;;
37641;SDS011;23486;51.956;5.888;2023-03-01T13:15:39;6.05;;;3.28;;
37641;SDS011;23486;51.956;5.888;2023-03-01T13:23:13;8.68;;;3.70;;
37641;SDS011;23486;51.956;5.888;2023-03-01T13:31:00;7.80;;;3.00;;
37641;SDS011;23486;51.956;5.888;2023-03-01T13:35:56;11.13;;;4.18;;
37641;SDS011;23486;51.956;5.888;2023-03-01T13:41:09;6.97;;;3.08;;
37641;SDS011;23486;51.956;5.888;2023-03-01T13:43:36;6.43;;;3.08;;
37641;SDS011;23486;51.956;5.888;2023-03-01T13:46:23;5.30;;;2.60;;
37641;SDS011;23486;51.956;5.888;2023-03-01T13:48:53;6.68;;;2.90;;
37641;SDS011;23486;51.956;5.888;2023-03-01T13:51:27;6.57;;;2.88;;
37641;SDS011;23486;51.956;5.888;2023-03-01T13:53:53;5.95;;;3.38;;
37641;SDS011;23486;51.956;5.888;2023-03-01T13:56:24;5.85;;;2.58;;
37641;SDS011;23486;51.956;5.888;2023-03-01T14:01:31;5.78;;;2.78;;
37641;SDS011;23486;51.956;5.888;2023-03-01T14:03:58;6.45;;;3.47;;
37641;SDS011;23486;51.956;5.888;2023-03-01T14:06:25;8.50;;;2.58;;
37641;SDS011;23486;51.956;5.888;2023-03-01T14:09:02;5.15;;;2.25;;
37641;SDS011;23486;51.956;5.888;2023-03-01T14:20:07;6.43;;;3.22;;
37641;SDS011;23486;51.956;5.888;2023-03-01T14:22:37;4.90;;;2.33;;
37641;SDS011;23486;51.956;5.888;2023-03-01T14:25:45;5.97;;;2.80;;
37641;SDS011;23486;51.956;5.888;2023-03-01T14:30:42;6.97;;;3.28;;
37641;SDS011;23486;51.956;5.888;2023-03-01T14:38:22;6.57;;;3.30;;
37641;SDS011;23486;51.956;5.888;2023-03-01T14:40:57;4.85;;;2.90;;
37641;SDS011;23486;51.956;5.888;2023-03-01T14:43:26;5.60;;;2.92;;
37641;SDS011;23486;51.956;5.888;2023-03-01T14:45:53;5.43;;;3.10;;
37641;SDS011;23486;51.956;5.888;2023-03-01T14:48:19;6.13;;;2.35;;
37641;SDS011;23486;51.956;5.888;2023-03-01T14:50:45;8.27;;;2.90;;
37641;SDS011;23486;51.956;5.888;2023-03-01T14:53:15;6.68;;;3.28;;
37641;SDS011;23486;51.956;5.888;2023-03-01T14:55:59;5.65;;;2.55;;
37641;SDS011;23486;51.956;5.888;2023-03-01T14:58:31;5.85;;;2.60;;
37641;SDS011;23486;51.956;5.888;2023-03-01T15:00:59;6.35;;;3.30;;
37641;SDS011;23486;51.956;5.888;2023-03-01T15:03:32;7.13;;;3.10;;
37641;SDS011;23486;51.956;5.888;2023-03-01T15:06:09;7.80;;;3.17;;
37641;SDS011;23486;51.956;5.888;2023-03-01T15:08:37;12.95;;;4.05;;
37641;SDS011;23486;51.956;5.888;2023-03-01T15:13:38;5.22;;;2.22;;
37641;SDS011;23486;51.956;5.888;2023-03-01T15:16:11;6.13;;;2.67;;
37641;SDS011;23486;51.956;5.888;2023-03-01T15:18:46;5.50;;;2.40;;
37641;SDS011;23486;51.956;5.888;2023-03-01T15:21:25;4.28;;;2.03;;
37641;SDS011;23486;51.956;5.888;2023-03-01T15:24:06;5.68;;;2.42;;
37641;SDS011;23486;51.956;5.888;2023-03-01T15:26:49;4.80;;;2.03;;
37641;SDS011;23486;51.956;5.888;2023-03-01T15:29:20;4.50;;;2.17;;
37641;SDS011;23486;51.956;5.888;2023-03-01T15:32:24;5.97;;;2.00;;
37641;SDS011;23486;51.956;5.888;2023-03-01T15:34:53;4.25;;;1.50;;
37641;SDS011;23486;51.956;5.888;2023-03-01T15:40:28;7.15;;;2.63;;
37641;SDS011;23486;51.956;5.888;2023-03-01T15:43:01;4.80;;;2.20;;
37641;SDS011;23486;51.956;5.888;2023-03-01T15:45:30;5.63;;;1.80;;
37641;SDS011;23486;51.956;5.888;2023-03-01T15:48:02;4.78;;;2.25;;
37641;SDS011;23486;51.956;5.888;2023-03-01T15:50:31;4.30;;;1.83;;
37641;SDS011;23486;51.956;5.888;2023-03-01T15:53:00;5.70;;;2.50;;
37641;SDS011;23486;51.956;5.888;2023-03-01T15:55:30;9.07;;;3.78;;
37641;SDS011;23486;51.956;5.888;2023-03-01T15:57:58;8.15;;;3.40;;
37641;SDS011;23486;51.956;5.888;2023-03-01T16:02:57;5.97;;;2.40;;
37641;SDS011;23486;51.956;5.888;2023-03-01T16:05:25;4.53;;;1.50;;
37641;SDS011;23486;51.956;5.888;2023-03-01T16:07:56;4.75;;;1.60;;
37641;SDS011;23486;51.956;5.888;2023-03-01T16:10:22;5.63;;;2.10;;
37641;SDS011;23486;51.956;5.888;2023-03-01T16:12:49;5.07;;;1.27;;
37641;SDS011;23486;51.956;5.888;2023-03-01T16:15:18;4.22;;;1.40;;
37641;SDS011;23486;51.956;5.888;2023-03-01T16:17:46;4.25;;;1.50;;
37641;SDS011;23486;51.956;5.888;2023-03-01T16:20:21;5.18;;;1.48;;
37641;SDS011;23486;51.956;5.888;2023-03-01T16:22:47;3.92;;;1.23;;
37641;SDS011;23486;51.956;5.888;2023-03-01T16:25:14;5.20;;;2.15;;
37641;SDS011;23486;51.956;5.888;2023-03-01T16:27:42;9.75;;;3.30;;
37641;SDS011;23486;51.956;5.888;2023-03-01T16:30:15;7.15;;;3.08;;
37641;SDS011;23486;51.956;5.888;2023-03-01T16:32:44;5.03;;;2.13;;
37641;SDS011;23486;51.956;5.888;2023-03-01T16:35:11;7.30;;;2.72;;
37641;SDS011;23486;51.956;5.888;2023-03-01T16:37:39;5.25;;;2.30;;
37641;SDS011;23486;51.956;5.888;2023-03-01T16:40:06;5.88;;;2.10;;
37641;SDS011;23486;51.956;5.888;2023-03-01T16:42:50;5.30;;;2.08;;
37641;SDS011;23486;51.956;5.888;2023-03-01T16:45:16;4.85;;;1.85;;
37641;SDS011;23486;51.956;5.888;2023-03-01T16:47:45;4.95;;;1.67;;
37641;SDS011;23486;51.956;5.888;2023-03-01T16:50:10;5.28;;;1.70;;
37641;SDS011;23486;51.956;5.888;2023-03-01T16:52:36;4.25;;;1.98;;
37641;SDS011;23486;51.956;5.888;2023-03-01T16:55:04;6.00;;;1.80;;
37641;SDS011;23486;51.956;5.888;2023-03-01T16:57:33;4.93;;;1.67;;
37641;SDS011;23486;51.956;5.888;2023-03-01T16:59:59;4.80;;;2.00;;
37641;SDS011;23486;51.956;5.888;2023-03-01T17:02:24;6.30;;;2.17;;
37641;SDS011;23486;51.956;5.888;2023-03-01T17:04:51;6.95;;;1.80;;
37641;SDS011;23486;51.956;5.888;2023-03-01T17:07:18;7.68;;;1.48;;
37641;SDS011;23486;51.956;5.888;2023-03-01T17:09:44;4.95;;;2.00;;
37641;SDS011;23486;51.956;5.888;2023-03-01T17:12:11;4.00;;;1.45;;
37641;SDS011;23486;51.956;5.888;2023-03-01T17:14:40;7.72;;;1.80;;
37641;SDS011;23486;51.956;5.888;2023-03-01T17:17:10;7.47;;;2.10;;